Time;durP1;ratioP1;P1;durP2;ratioP2;P2;SDS_P1;SDS_P2;PMS_P1;PMS_P2;Temp;Humidity;BMP_temperature;BMP_pressure;BME280_temperature;BME280_humidity;BME280_pressure;Samples;Min_cycle;Max_cycle;Signal;HPM_P1;HPM_P2
2022/07/03 00:01:18;;;;;;;0.10;0.10;;;;;;;26.18;52.15;100211.53;4997725;28;20030;-79
2022/07/03 00:03:45;;;;;;;0.10;0.10;;;;;;;26.15;52.06;100215.31;4994396;28;20046;-80
2022/07/03 00:06:11;;;;;;;0.10;0.10;;;;;;;26.03;52.88;100212.09;4994220;28;20034;-79
2022/07/03 00:08:37;;;;;;;0.10;0.10;;;;;;;25.98;52.96;100200.53;4994695;28;20031;-78
2022/07/03 00:11:03;;;;;;;0.10;0.10;;;;;;;25.90;53.25;100214.28;4994153;28;20080;-78
2022/07/03 00:13:29;;;;;;;0.10;0.10;;;;;;;25.67;53.91;100204.13;4994401;28;20492;-78
2022/07/03 00:15:54;;;;;;;0.10;0.10;;;;;;;25.55;54.40;100202.97;4994103;28;20027;-79
2022/07/03 00:18:20;;;;;;;0.10;0.10;;;;;;;25.53;54.74;100199.81;4994605;28;20038;-79
2022/07/03 00:20:49;;;;;;;0.10;0.10;;;;;;;25.49;54.83;100196.28;4993535;28;20390;-77
2022/07/03 00:23:18;;;;;;;0.10;0.10;;;;;;;25.49;54.63;100199.13;4993844;28;20473;-78
2022/07/03 00:25:44;;;;;;;0.10;0.10;;;;;;;25.51;54.23;100202.31;4993866;28;20489;-78
2022/07/03 00:28:10;;;;;;;0.10;0.10;;;;;;;25.55;53.83;100190.78;4994223;28;20026;-78
2022/07/03 00:30:36;;;;;;;0.10;0.10;;;;;;;25.57;52.75;100200.47;4977851;28;20465;-77
2022/07/03 00:33:04;;;;;;;0.10;0.10;;;;;;;25.53;52.94;100196.16;4993793;28;20027;-78
2022/07/03 00:35:36;;;;;;;0.20;0.20;;;;;;;25.58;52.45;100192.72;4994515;28;20038;-77
2022/07/03 00:38:02;;;;;;;0.10;0.10;;;;;;;25.58;53.31;100193.50;4995082;28;20030;-77
2022/07/03 00:40:29;;;;;;;0.10;0.10;;;;;;;25.57;53.23;100191.13;4993489;28;20037;-77
2022/07/03 00:42:56;;;;;;;0.10;0.10;;;;;;;25.60;53.38;100188.13;4994099;28;20023;-79
2022/07/03 00:45:21;;;;;;;0.10;0.10;;;;;;;25.66;53.17;100191.16;4995002;28;20457;-78
2022/07/03 00:47:48;;;;;;;0.10;0.10;;;;;;;25.59;52.77;100189.38;4993564;28;20026;-77
2022/07/03 00:50:14;;;;;;;0.10;0.10;;;;;;;25.61;53.31;100194.59;4977375;28;20089;-79
2022/07/03 00:52:47;;;;;;;0.10;0.10;;;;;;;25.65;53.00;100195.28;4994027;28;20034;-78
2022/07/03 00:55:17;;;;;;;0.10;0.10;;;;;;;25.66;52.52;100191.16;4993927;28;20045;-77
2022/07/03 00:57:47;;;;;;;0.10;0.10;;;;;;;25.69;52.33;100189.44;4994553;28;20109;-78
2022/07/03 01:00:17;;;;;;;0.20;0.20;;;;;;;25.66;51.77;100181.81;4993546;28;20089;-77
2022/07/03 01:03:05;;;;;;;0.10;0.10;;;;;;;25.65;51.31;100183.88;4995219;28;20030;-79
2022/07/03 01:05:44;;;;;;;0.20;0.20;;;;;;;25.58;51.48;100178.47;4993623;28;20037;-78
2022/07/03 01:08:31;;;;;;;0.10;0.10;;;;;;;25.56;51.39;100173.22;4993970;28;20117;-77
2022/07/03 01:11:15;;;;;;;0.10;0.10;;;;;;;25.52;51.19;100154.69;4993513;28;20035;-78
2022/07/03 01:13:44;;;;;;;0.10;0.10;;;;;;;25.63;50.57;100169.31;4993931;28;20495;-78
2022/07/03 01:16:24;;;;;;;0.10;0.10;;;;;;;25.62;51.17;100164.88;4993700;28;20404;-79
2022/07/03 01:18:54;;;;;;;0.10;0.10;;;;;;;25.67;50.97;100160.59;4993029;28;20117;-79
2022/07/03 01:21:54;;;;;;;0.10;0.10;;;;;;;25.73;51.13;100158.75;4996753;28;20053;-79
2022/07/03 01:24:42;;;;;;;0.10;0.10;;;;;;;25.59;51.25;100155.19;4996372;28;20113;-78
2022/07/03 01:31:06;;;;;;;0.10;0.10;;;;;;;25.64;51.42;100145.25;5014399;28;20492;-78
2022/07/03 01:33:33;;;;;;;0.10;0.10;;;;;;;25.69;51.97;100143.84;4996460;28;20030;-77
2022/07/03 01:36:01;;;;;;;0.10;0.10;;;;;;;25.62;51.73;100133.53;4996337;28;20030;-77
2022/07/03 01:38:32;;;;;;;0.20;0.20;;;;;;;25.73;51.67;100138.81;4996253;28;20057;-78
2022/07/03 01:41:00;;;;;;;0.10;0.10;;;;;;;25.75;51.72;100142.00;4996368;28;20022;-77
2022/07/03 01:43:34;;;;;;;0.10;0.10;;;;;;;25.82;50.45;100136.00;4996211;28;20072;-79
2022/07/03 01:46:02;;;;;;;0.10;0.10;;;;;;;25.75;50.07;100128.56;5013922;28;20026;-77
2022/07/03 01:48:30;;;;;;;0.10;0.10;;;;;;;25.89;49.10;100129.22;4997702;28;20025;-78
2022/07/03 01:50:56;;;;;;;0.10;0.10;;;;;;;25.86;48.17;100130.97;5001080;28;20599;-77
2022/07/03 01:53:29;;;;;;;0.10;0.10;;;;;;;25.88;48.55;100131.28;4999866;28;20034;-77
2022/07/03 01:55:57;;;;;;;0.17;0.17;;;;;;;25.89;48.46;100124.34;4999989;28;20115;-79
2022/07/03 01:58:23;;;;;;;0.10;0.10;;;;;;;25.93;48.42;100118.47;5000122;28;20038;-78
2022/07/03 02:01:04;;;;;;;0.10;0.10;;;;;;;25.94;48.83;100123.72;4983961;28;20057;-77
2022/07/03 02:03:34;;;;;;;0.10;0.10;;;;;;;25.93;48.16;100130.66;5000558;28;20124;-79
2022/07/03 02:06:09;;;;;;;0.10;0.10;;;;;;;26.01;47.94;100136.88;5000352;28;20041;-79
2022/07/03 02:08:37;;;;;;;0.10;0.10;;;;;;;26.02;48.19;100133.56;5000055;28;20499;-79
2022/07/03 02:11:17;;;;;;;0.10;0.10;;;;;;;26.10;47.58;100137.72;4999685;28;20111;-78
2022/07/03 02:14:09;;;;;;;0.17;0.17;;;;;;;26.08;47.14;100140.22;4999839;28;20172;-77
2022/07/03 02:17:01;;;;;;;0.10;0.10;;;;;;;26.09;46.77;100149.56;5000493;28;20061;-79
2022/07/03 02:19:53;;;;;;;0.10;0.10;;;;;;;26.13;46.35;100148.16;4988588;28;20038;-78
2022/07/03 02:22:24;;;;;;;0.10;0.10;;;;;;;26.12;46.34;100146.56;5000046;28;20045;-78
2022/07/03 02:24:50;;;;;;;0.10;0.10;;;;;;;26.15;46.32;100147.69;4999499;28;20038;-77
2022/07/03 02:27:21;;;;;;;0.10;0.10;;;;;;;26.12;46.57;100149.44;4999560;28;20080;-77
2022/07/03 02:29:54;;;;;;;0.10;0.10;;;;;;;26.06;46.31;100147.66;4999677;28;20099;-78
2022/07/03 02:32:23;;;;;;;0.10;0.10;;;;;;;26.10;46.18;100151.19;5000059;28;20034;-78
2022/07/03 02:35:03;;;;;;;0.10;0.10;;;;;;;26.10;46.27;100139.78;4999838;28;20429;-76
2022/07/03 02:37:33;;;;;;;0.17;0.17;;;;;;;26.10;46.29;100146.25;4999576;28;20044;-77
2022/07/03 02:40:16;;;;;;;0.10;0.10;;;;;;;26.10;45.95;100145.47;4999689;28;20045;-78
2022/07/03 02:43:28;;;;;;;0.10;0.10;;;;;;;26.05;46.00;100149.72;4999557;28;20499;-77
2022/07/03 02:46:48;;;;;;;0.10;0.10;;;;;;;26.03;45.80;100152.25;4945853;28;20033;-79
2022/07/03 02:49:19;;;;;;;0.10;0.10;;;;;;;26.03;45.72;100151.44;5016080;28;20041;-77
2022/07/03 02:52:01;;;;;;;0.10;0.10;;;;;;;26.10;45.36;100146.25;4966153;28;20485;-77
2022/07/03 02:54:32;;;;;;;0.10;0.10;;;;;;;26.04;45.28;100148.13;4999220;28;20026;-78
2022/07/03 02:57:08;;;;;;;0.10;0.10;;;;;;;26.12;45.35;100149.44;4999205;28;20041;-77
2022/07/03 03:00:04;;;;;;;0.10;0.10;;;;;;;26.17;44.90;100150.06;4999380;28;20485;-76
2022/07/03 03:02:54;;;;;;;0.20;0.20;;;;;;;26.14;45.05;100154.66;5016653;28;20047;-79
2022/07/03 03:05:45;;;;;;;0.10;0.10;;;;;;;26.12;44.94;100152.28;5016646;28;20164;-79
2022/07/03 03:08:19;;;;;;;0.10;0.10;;;;;;;26.15;45.17;100152.59;5016375;28;20045;-76
2022/07/03 03:10:48;;;;;;;0.10;0.10;;;;;;;26.11;45.18;100152.75;4999325;28;20071;-79
2022/07/03 03:13:16;;;;;;;0.10;0.10;;;;;;;26.15;45.06;100146.88;4998269;28;20120;-79
2022/07/03 03:15:51;;;;;;;0.10;0.10;;;;;;;26.19;44.66;100154.03;5016798;28;20377;-78
2022/07/03 03:18:22;;;;;;;0.10;0.10;;;;;;;26.13;45.11;100153.06;4999104;28;20124;-77
2022/07/03 03:20:50;;;;;;;0.10;0.10;;;;;;;26.22;44.00;100155.16;4994936;28;20065;-78
2022/07/03 03:23:42;;;;;;;0.10;0.10;;;;;;;26.24;44.21;100149.75;4995232;28;20026;-77
2022/07/03 03:26:08;;;;;;;0.10;0.10;;;;;;;26.22;44.65;100158.00;4995247;28;20026;-79
2022/07/03 03:28:34;;;;;;;0.10;0.10;;;;;;;26.21;44.71;100164.97;4995136;28;20084;-77
2022/07/03 03:31:00;;;;;;;0.10;0.10;;;;;;;26.19;44.40;100156.09;4995605;28;20030;-78
2022/07/03 03:33:26;;;;;;;0.10;0.10;;;;;;;26.20;44.65;100163.38;4995316;28;20389;-79
2022/07/03 03:35:52;;;;;;;0.10;0.10;;;;;;;26.17;44.54;100158.63;4994989;28;20508;-78
2022/07/03 03:38:18;;;;;;;0.13;0.13;;;;;;;26.19;44.71;100162.59;4997281;28;20081;-78
2022/07/03 03:40:45;;;;;;;0.10;0.10;;;;;;;26.19;44.56;100156.09;4997440;28;20389;-78
2022/07/03 03:43:10;;;;;;;0.10;0.10;;;;;;;26.32;44.22;100168.19;4995391;28;20046;-77
2022/07/03 03:45:36;;;;;;;0.10;0.10;;;;;;;26.25;44.43;100174.16;4995242;28;20030;-78
2022/07/03 03:48:02;;;;;;;0.10;0.10;;;;;;;26.29;44.28;100163.41;4994588;28;20108;-79
2022/07/03 03:50:27;;;;;;;0.10;0.10;;;;;;;26.31;44.47;100166.56;4995169;28;20040;-78
2022/07/03 03:52:53;;;;;;;0.10;0.10;;;;;;;26.33;44.60;100158.34;4994467;28;20019;-79
2022/07/03 03:55:20;;;;;;;0.10;0.10;;;;;;;26.38;44.00;100160.59;4994993;28;20026;-77
2022/07/03 03:57:45;;;;;;;0.10;0.10;;;;;;;26.45;44.36;100160.28;4994718;28;20030;-78
2022/07/03 04:00:11;;;;;;;0.20;0.20;;;;;;;26.45;44.17;100163.16;4995306;28;20355;-79
2022/07/03 04:02:37;;;;;;;0.10;0.10;;;;;;;26.55;43.75;100163.97;4994426;28;20038;-78
2022/07/03 04:05:03;;;;;;;0.10;0.10;;;;;;;26.80;43.30;100171.44;4994492;28;20088;-77
2022/07/03 04:07:28;;;;;;;0.10;0.10;;;;;;;27.06;42.91;100180.44;4994413;28;20080;-79
2022/07/03 04:09:54;;;;;;;0.10;0.10;;;;;;;27.30;42.41;100177.78;4994512;28;20035;-77
2022/07/03 04:12:19;;;;;;;0.10;0.10;;;;;;;27.57;41.68;100177.69;4994584;28;20038;-79
2022/07/03 04:14:45;;;;;;;0.10;0.10;;;;;;;27.81;41.41;100177.03;4993674;28;20027;-79
2022/07/03 04:17:10;;;;;;;0.10;0.10;;;;;;;28.06;40.42;100187.25;4993949;28;20061;-78
2022/07/03 04:19:36;;;;;;;0.10;0.10;;;;;;;28.39;40.29;100187.25;4994192;28;20061;-77
2022/07/03 04:22:02;;;;;;;0.10;0.10;;;;;;;28.63;39.65;100196.63;4977889;28;20084;-77
2022/07/03 04:24:27;;;;;;;0.10;0.10;;;;;;;28.91;39.53;100199.28;4994399;28;20072;-79
2022/07/03 04:26:53;;;;;;;0.10;0.10;;;;;;;28.98;39.75;100201.81;4994180;28;20033;-80
2022/07/03 04:29:18;;;;;;;0.10;0.10;;;;;;;29.08;39.60;100200.44;4994043;28;20359;-78
2022/07/03 04:31:44;;;;;;;0.10;0.10;;;;;;;29.50;38.73;100213.72;4993737;28;20030;-77
2022/07/03 04:34:09;;;;;;;0.10;0.10;;;;;;;29.69;38.18;100200.03;4993738;28;20062;-78
2022/07/03 04:36:35;;;;;;;0.10;0.10;;;;;;;30.11;38.22;100199.69;4993690;28;20026;-78
2022/07/03 04:39:00;;;;;;;0.10;0.10;;;;;;;30.51;37.21;100201.84;4994106;28;20041;-78
2022/07/03 04:41:26;;;;;;;0.10;0.10;;;;;;;30.95;36.75;100205.84;4993995;28;20102;-77
2022/07/03 04:43:52;;;;;;;0.10;0.10;;;;;;;31.29;35.71;100204.97;4993541;28;20473;-76
2022/07/03 04:46:17;;;;;;;0.10;0.10;;;;;;;31.71;34.84;100203.53;4993571;28;20087;-77
2022/07/03 04:48:43;;;;;;;0.10;0.10;;;;;;;32.08;34.03;100214.31;4993648;28;20026;-80
2022/07/03 04:51:08;;;;;;;0.10;0.10;;;;;;;32.41;33.73;100210.13;4993770;28;20042;-81
2022/07/03 04:53:34;;;;;;;0.10;0.10;;;;;;;32.71;33.53;100202.72;4993601;28;20034;-80
2022/07/03 04:55:59;;;;;;;0.10;0.10;;;;;;;33.06;33.00;100199.44;4993732;28;20039;-78
2022/07/03 04:58:25;;;;;;;0.10;0.10;;;;;;;33.15;32.71;100200.53;4993621;28;20150;-77
2022/07/03 05:00:51;;;;;;;0.10;0.10;;;;;;;33.67;31.98;100212.47;4993631;28;20038;-75
2022/07/03 05:03:16;;;;;;;0.10;0.10;;;;;;;34.02;31.72;100205.38;4993703;28;20034;-79
2022/07/03 05:05:45;;;;;;;0.10;0.10;;;;;;;34.31;31.02;100207.72;4993428;28;20034;-80
2022/07/03 05:08:10;;;;;;;0.10;0.10;;;;;;;34.27;30.85;100207.19;4993675;28;20030;-80
2022/07/03 05:10:36;;;;;;;0.10;0.10;;;;;;;34.49;30.61;100211.38;4993378;28;20430;-76
2022/07/03 05:13:01;;;;;;;0.10;0.10;;;;;;;34.71;30.57;100205.53;4993493;28;20030;-79
2022/07/03 05:15:27;;;;;;;0.10;0.10;;;;;;;35.06;30.10;100207.00;4993390;28;20462;-76
2022/07/03 05:17:52;;;;;;;0.10;0.10;;;;;;;35.21;29.27;100207.44;4992871;28;20139;-78
2022/07/03 05:20:24;;;;;;;0.10;0.10;;;;;;;35.52;28.72;100208.28;4992949;28;20138;-79
2022/07/03 05:22:53;;;;;;;0.10;0.10;;;;;;;35.74;27.83;100208.13;4993695;28;20440;-78
2022/07/03 05:25:20;;;;;;;0.10;0.10;;;;;;;34.55;32.08;100220.81;4977363;28;20038;-78
2022/07/03 05:27:46;;;;;;;0.10;0.10;;;;;;;34.51;32.69;100220.28;4992428;28;20462;-73
2022/07/03 05:30:12;;;;;;;0.10;0.10;;;;;;;34.72;32.24;100218.66;4992665;28;20034;-73
2022/07/03 05:32:38;;;;;;;0.10;0.10;;;;;;;35.28;30.49;100215.53;4994794;28;20026;-73
2022/07/03 05:35:04;;;;;;;0.10;0.10;;;;;;;34.57;32.19;100223.94;4992504;28;20101;-73
2022/07/03 05:37:30;;;;;;;0.10;0.10;;;;;;;34.52;33.98;100222.66;4992816;28;20034;-73
2022/07/03 05:39:55;;;;;;;0.10;0.10;;;;;;;33.72;35.06;100214.56;4992897;28;20034;-73
2022/07/03 05:42:21;;;;;;;0.10;0.10;;;;;;;33.61;34.25;100223.19;4992685;28;20053;-74
2022/07/03 05:44:47;;;;;;;0.10;0.10;;;;;;;33.63;33.28;100220.56;4993156;28;20035;-74
2022/07/03 05:47:12;;;;;;;0.10;0.10;;;;;;;32.84;34.89;100222.38;4993351;28;20022;-73
2022/07/03 05:49:38;;;;;;;0.10;0.10;;;;;;;33.13;33.76;100221.22;4992495;28;20385;-73
2022/07/03 05:52:04;;;;;;;0.10;0.10;;;;;;;33.24;33.44;100234.88;4992787;28;20037;-74
2022/07/03 05:54:29;;;;;;;0.10;0.10;;;;;;;33.27;32.81;100225.97;4991693;28;20031;-72
2022/07/03 05:56:55;;;;;;;0.10;0.10;;;;;;;33.13;33.91;100232.75;4992415;28;20496;-73
2022/07/03 05:59:20;;;;;;;0.10;0.10;;;;;;;33.65;32.74;100229.47;4993056;28;20038;-73
2022/07/03 06:01:46;;;;;;;0.10;0.10;;;;;;;33.55;33.80;100228.16;4992453;28;20370;-75
2022/07/03 06:04:12;;;;;;;0.10;0.10;;;;;;;33.44;33.73;100217.38;4992646;28;20040;-73
2022/07/03 06:06:37;;;;;;;0.10;0.10;;;;;;;33.69;33.61;100232.91;4992379;28;20523;-73
2022/07/03 06:09:03;;;;;;;0.10;0.10;;;;;;;33.78;33.33;100235.53;4992705;28;20023;-73
2022/07/03 06:11:29;;;;;;;0.10;0.10;;;;;;;34.44;33.10;100232.38;4992530;28;20552;-73
2022/07/03 06:13:54;;;;;;;0.10;0.10;;;;;;;34.71;32.64;100234.41;4992553;28;20121;-74
2022/07/03 06:16:20;;;;;;;0.10;0.10;;;;;;;34.72;32.39;100241.75;4992554;28;20547;-74
2022/07/03 06:18:46;;;;;;;0.10;0.10;;;;;;;35.03;31.44;100242.72;4992215;28;20480;-75
2022/07/03 06:21:11;;;;;;;0.10;0.10;;;;;;;35.72;30.80;100236.81;4991772;28;20137;-74
2022/07/03 06:23:37;;;;;;;0.10;0.10;;;;;;;35.43;30.85;100241.22;4992608;28;20030;-75
2022/07/03 06:26:02;;;;;;;0.10;0.10;;;;;;;35.24;30.56;100241.06;4992707;28;20058;-73
2022/07/03 06:28:28;;;;;;;0.10;0.10;;;;;;;35.77;30.51;100229.44;4992208;28;20032;-75
2022/07/03 06:30:54;;;;;;;0.10;0.10;;;;;;;36.78;28.56;100231.38;4992191;28;20034;-76
2022/07/03 06:33:19;;;;;;;0.10;0.10;;;;;;;37.35;27.11;100230.13;4991977;28;20049;-74
2022/07/03 06:35:45;;;;;;;0.10;0.10;;;;;;;37.09;25.88;100229.97;4992166;28;20125;-74
2022/07/03 06:38:10;;;;;;;0.10;0.10;;;;;;;38.00;24.95;100228.88;4992976;28;20084;-73
2022/07/03 06:40:36;;;;;;;0.10;0.10;;;;;;;38.34;24.03;100228.31;4995692;28;20026;-75
2022/07/03 06:43:01;;;;;;;0.10;0.10;;;;;;;38.25;24.78;100228.72;4995924;28;20038;-73
2022/07/03 06:45:27;;;;;;;0.10;0.10;;;;;;;38.15;25.18;100224.69;4995713;28;20454;-75
2022/07/03 06:47:52;;;;;;;0.10;0.10;;;;;;;38.20;24.71;100236.19;4995188;28;20366;-75
2022/07/03 06:50:18;;;;;;;0.10;0.10;;;;;;;38.38;24.66;100225.84;4995979;28;20125;-75
2022/07/03 06:52:44;;;;;;;0.10;0.10;;;;;;;37.77;25.86;100227.69;4995473;28;20087;-73
2022/07/03 06:55:09;;;;;;;0.10;0.10;;;;;;;38.38;25.68;100227.97;4995644;28;20053;-75
2022/07/03 06:57:35;;;;;;;0.10;0.10;;;;;;;38.45;24.72;100225.19;4995455;28;20129;-72
2022/07/03 07:00:00;;;;;;;0.10;0.10;;;;;;;37.28;25.51;100233.66;4995324;28;20116;-74
2022/07/03 07:02:26;;;;;;;0.10;0.10;;;;;;;37.00;25.77;100221.66;4995219;28;20027;-73
2022/07/03 07:04:51;;;;;;;0.10;0.10;;;;;;;37.22;25.44;100233.72;4995219;28;20088;-73
2022/07/03 07:07:17;;;;;;;0.10;0.10;;;;;;;36.79;25.58;100230.84;4995347;28;20050;-75
2022/07/03 07:09:42;;;;;;;0.10;0.10;;;;;;;36.50;25.89;100225.91;4995543;28;20111;-74
2022/07/03 07:12:08;;;;;;;0.10;0.10;;;;;;;37.27;25.22;100228.41;4995003;28;20123;-74
2022/07/03 07:14:34;;;;;;;0.10;0.10;;;;;;;37.95;25.03;100229.75;4994716;28;20046;-75
2022/07/03 07:16:59;;;;;;;0.10;0.10;;;;;;;37.66;25.32;100231.53;4995018;28;20034;-75
2022/07/03 07:19:25;;;;;;;0.10;0.10;;;;;;;38.20;25.06;100227.47;4994720;28;20077;-72
2022/07/03 07:21:50;;;;;;;0.10;0.10;;;;;;;38.20;25.09;100224.59;4994923;28;20477;-74
2022/07/03 07:24:16;;;;;;;0.10;0.10;;;;;;;37.75;25.56;100218.72;4995116;28;20038;-74
2022/07/03 07:26:42;;;;;;;0.10;0.10;;;;;;;37.64;26.16;100216.00;4994657;28;20034;-76
2022/07/03 07:29:07;;;;;;;0.10;0.10;;;;;;;38.83;24.55;100213.34;4995206;28;20022;-74
2022/07/03 07:31:33;;;;;;;0.10;0.10;;;;;;;38.88;23.61;100227.00;4994872;28;20031;-75
2022/07/03 07:33:58;;;;;;;0.10;0.10;;;;;;;39.34;23.35;100221.00;4995907;28;20452;-74
2022/07/03 07:36:24;;;;;;;0.10;0.10;;;;;;;39.99;23.22;100228.69;4994654;28;20026;-76
2022/07/03 07:38:49;;;;;;;0.10;0.10;;;;;;;39.61;23.72;100231.19;4994575;28;20117;-75
2022/07/03 07:41:15;;;;;;;0.10;0.10;;;;;;;40.22;21.90;100226.00;4994649;28;20080;-76
2022/07/03 07:43:40;;;;;;;0.10;0.10;;;;;;;40.28;21.86;100225.88;4994890;28;20096;-75
2022/07/03 07:46:06;;;;;;;0.10;0.10;;;;;;;40.33;21.44;100233.69;4994705;28;20040;-75
2022/07/03 07:48:35;;;;;;;0.10;0.10;;;;;;;39.84;22.12;100230.69;4994774;28;20041;-74
2022/07/03 07:51:01;;;;;;;0.10;0.10;;;;;;;40.50;21.13;100225.28;4993738;28;20027;-75
2022/07/03 07:53:26;;;;;;;0.10;0.10;;;;;;;39.58;22.36;100229.44;4994404;28;20532;-76
2022/07/03 07:55:52;;;;;;;0.10;0.10;;;;;;;39.38;22.77;100233.88;4994542;28;20072;-74
2022/07/03 07:58:17;;;;;;;0.10;0.10;;;;;;;40.14;21.17;100233.13;4994384;28;20493;-77
2022/07/03 08:06:15;;;;;;;0.10;0.10;;;;;;;40.66;20.72;100226.16;4995943;28;20511;-76
2022/07/03 08:08:41;;;;;;;0.10;0.10;;;;;;;40.81;20.18;100228.38;4994068;28;20034;-76
2022/07/03 08:11:06;;;;;;;0.10;0.10;;;;;;;40.16;21.13;100228.28;4993786;28;20097;-75
2022/07/03 08:13:32;;;;;;;0.10;0.10;;;;;;;41.05;20.12;100227.94;4993695;28;20166;-76
2022/07/03 08:15:59;;;;;;;0.10;0.10;;;;;;;40.13;20.91;100228.66;4993803;28;20040;-76
2022/07/03 08:18:24;;;;;;;0.10;0.10;;;;;;;40.45;20.96;100226.19;4993812;28;20054;-74
2022/07/03 08:20:50;;;;;;;0.10;0.10;;;;;;;40.88;21.20;100226.84;4993359;28;20093;-76
2022/07/03 08:23:16;;;;;;;0.10;0.10;;;;;;;39.94;20.85;100235.44;4993874;28;20026;-76
2022/07/03 08:25:42;;;;;;;0.10;0.10;;;;;;;39.77;21.52;100235.88;4993474;28;20096;-75
2022/07/03 08:28:08;;;;;;;0.10;0.10;;;;;;;40.07;21.15;100225.88;4993865;28;20030;-76
2022/07/03 08:30:33;;;;;;;0.10;0.10;;;;;;;40.54;21.24;100228.63;4993567;28;20125;-76
2022/07/03 08:32:59;;;;;;;0.10;0.10;;;;;;;40.17;21.83;100232.00;4993408;28;20058;-75
2022/07/03 08:35:26;;;;;;;0.10;0.10;;;;;;;40.47;21.82;100231.44;4993985;28;20030;-76
2022/07/03 08:37:52;;;;;;;0.10;0.10;;;;;;;41.33;21.94;100229.19;4993189;28;20541;-75
2022/07/03 08:40:19;;;;;;;0.10;0.10;;;;;;;41.34;22.85;100224.94;4993776;28;20055;-75
2022/07/03 08:42:49;;;;;;;0.10;0.10;;;;;;;41.49;22.88;100225.00;4993631;28;20026;-75
2022/07/03 08:45:19;;;;;;;0.10;0.10;;;;;;;40.25;23.52;100230.69;4993668;28;20038;-75
2022/07/03 08:47:49;;;;;;;0.10;0.10;;;;;;;40.06;24.17;100230.16;4977767;28;20033;-76
2022/07/03 08:50:17;;;;;;;0.10;0.10;;;;;;;39.36;25.21;100230.72;4994455;28;20078;-77
2022/07/03 08:52:43;;;;;;;0.10;0.10;;;;;;;39.54;24.96;100235.59;4993029;28;20121;-77
2022/07/03 08:55:11;;;;;;;0.10;0.10;;;;;;;39.07;25.65;100238.50;4993330;28;20034;-75
2022/07/03 08:57:37;;;;;;;0.10;0.10;;;;;;;38.22;27.13;100229.81;4992981;28;20027;-76
2022/07/03 09:00:05;;;;;;;0.10;0.10;;;;;;;38.48;26.07;100234.91;4993629;28;20373;-77
2022/07/03 09:02:32;;;;;;;0.10;0.10;;;;;;;38.64;26.42;100241.75;4992459;28;20025;-76
2022/07/03 09:04:59;;;;;;;0.10;0.10;;;;;;;39.17;26.08;100244.63;4992851;28;20109;-78
2022/07/03 09:07:27;;;;;;;0.10;0.10;;;;;;;39.40;25.75;100236.97;4993336;28;20407;-78
2022/07/03 09:09:52;;;;;;;0.10;0.10;;;;;;;39.56;26.16;100232.91;4993242;28;20469;-77
2022/07/03 09:12:19;;;;;;;0.10;0.10;;;;;;;39.74;25.61;100242.06;4993525;28;20026;-77
2022/07/03 09:14:44;;;;;;;0.10;0.10;;;;;;;40.14;24.65;100239.72;4993408;28;20454;-78
2022/07/03 09:17:10;;;;;;;0.10;0.10;;;;;;;40.61;24.36;100240.91;4993387;28;20081;-77
2022/07/03 09:19:50;;;;;;;0.10;0.10;;;;;;;40.22;24.32;100240.59;5001062;28;20099;-77
2022/07/03 09:22:27;;;;;;;0.10;0.10;;;;;;;39.99;24.24;100225.00;4997192;28;20117;-77
2022/07/03 09:25:03;;;;;;;0.10;0.10;;;;;;;39.87;24.86;100239.06;5013945;28;20026;-76
2022/07/03 09:27:28;;;;;;;0.10;0.10;;;;;;;40.24;24.25;100231.25;5014257;28;20408;-76
2022/07/03 09:30:01;;;;;;;0.10;0.10;;;;;;;40.01;24.46;100226.00;4996471;28;20133;-76
2022/07/03 09:32:53;;;;;;;0.10;0.10;;;;;;;40.28;24.23;100234.59;4995368;28;20022;-76
2022/07/03 09:35:20;;;;;;;0.10;0.10;;;;;;;41.14;23.61;100223.69;4991647;28;20123;-78
2022/07/03 09:37:58;;;;;;;0.10;0.10;;;;;;;39.58;25.43;100225.72;4996529;28;20037;-76
2022/07/03 09:40:25;;;;;;;0.10;0.10;;;;;;;39.47;25.84;100229.69;5013498;28;20025;-74
2022/07/03 09:43:07;;;;;;;0.10;0.10;;;;;;;39.43;25.52;100224.22;4995350;28;20026;-76
2022/07/03 09:45:58;;;;;;;0.10;0.10;;;;;;;39.39;25.48;100225.91;4996081;28;20117;-76
2022/07/03 09:48:34;;;;;;;0.10;0.10;;;;;;;38.82;26.01;100223.41;4996739;28;20311;-76
2022/07/03 09:51:25;;;;;;;0.10;0.10;;;;;;;39.50;25.55;100223.53;4996431;28;20121;-76
2022/07/03 09:54:04;;;;;;;0.10;0.10;;;;;;;39.37;26.28;100214.84;4995946;28;20030;-76
2022/07/03 09:56:41;;;;;;;0.10;0.10;;;;;;;39.22;26.94;100220.50;4996247;28;20095;-77
2022/07/03 09:59:14;;;;;;;0.10;0.10;;;;;;;39.13;26.43;100230.44;4996708;28;20022;-75
2022/07/03 10:01:44;;;;;;;0.10;0.10;;;;;;;39.40;25.93;100225.34;4996449;28;20061;-76
2022/07/03 10:04:10;;;;;;;0.10;0.10;;;;;;;39.97;26.84;100218.97;4996240;28;20084;-77
2022/07/03 10:06:59;;;;;;;0.10;0.10;;;;;;;39.84;24.76;100216.91;4996235;28;20030;-75
2022/07/03 10:09:27;;;;;;;0.10;0.10;;;;;;;40.18;25.41;100221.91;4996628;28;20061;-76
2022/07/03 10:11:55;;;;;;;0.10;0.10;;;;;;;39.60;25.79;100196.84;4996112;28;20033;-77
2022/07/03 10:14:26;;;;;;;0.10;0.10;;;;;;;39.53;25.69;100216.59;4998615;28;20037;-75
2022/07/03 10:16:52;;;;;;;0.10;0.10;;;;;;;39.19;26.16;100215.78;5017150;28;20033;-75
2022/07/03 10:19:20;;;;;;;0.10;0.10;;;;;;;39.62;24.85;100211.59;4980102;28;20170;-76
2022/07/03 10:22:02;;;;;;;0.10;0.10;;;;;;;39.46;25.83;100211.44;4998241;28;20026;-76
2022/07/03 10:24:31;;;;;;;0.10;0.10;;;;;;;39.16;26.27;100205.25;4997269;28;20061;-76
2022/07/03 10:26:58;;;;;;;0.10;0.10;;;;;;;39.33;25.01;100196.16;4996095;28;20034;-77
2022/07/03 10:29:27;;;;;;;0.10;0.10;;;;;;;39.20;26.65;100200.66;4996030;28;20027;-77
2022/07/03 10:31:52;;;;;;;0.10;0.10;;;;;;;38.64;25.60;100196.00;4995668;28;20022;-76
2022/07/03 10:34:22;;;;;;;0.10;0.10;;;;;;;38.64;27.35;100198.16;4996320;28;20053;-75
2022/07/03 10:36:52;;;;;;;0.10;0.10;;;;;;;39.29;26.17;100197.28;4997851;28;20101;-74
2022/07/03 10:39:36;;;;;;;0.10;0.10;;;;;;;39.02;26.80;100198.69;4996411;28;20131;-76
2022/07/03 10:45:09;;;;;;;0.10;0.10;;;;;;;39.50;25.17;100200.22;4998140;28;20115;-76
2022/07/03 10:47:48;;;;;;;0.10;0.10;;;;;;;38.67;27.01;100192.00;4995871;28;20061;-76
2022/07/03 10:50:26;;;;;;;0.10;0.10;;;;;;;38.72;27.72;100173.63;4996957;28;20041;-75
2022/07/03 10:52:51;;;;;;;0.10;0.10;;;;;;;39.08;26.37;100181.09;4996673;28;20033;-77
2022/07/03 10:55:18;;;;;;;0.10;0.10;;;;;;;39.59;25.58;100189.47;4996454;28;20031;-77
2022/07/03 10:58:07;;;;;;;0.10;0.10;;;;;;;38.93;27.71;100185.38;4995384;28;20080;-76
2022/07/03 11:00:53;;;;;;;0.10;0.10;;;;;;;38.01;28.75;100181.06;4996538;28;20477;-76
2022/07/03 11:03:57;;;;;;;0.10;0.10;;;;;;;38.73;27.35;100177.34;4995574;28;20030;-75
2022/07/03 11:06:43;;;;;;;0.10;0.10;;;;;;;38.25;28.65;100185.16;4996926;28;20037;-77
2022/07/03 11:09:10;;;;;;;0.10;0.10;;;;;;;38.71;28.45;100182.91;4982049;28;20034;-77
2022/07/03 11:12:01;;;;;;;0.10;0.10;;;;;;;39.20;27.03;100182.44;4995762;28;20389;-77
2022/07/03 11:14:29;;;;;;;0.10;0.10;;;;;;;38.74;26.68;100170.22;4995187;28;20084;-76
2022/07/03 11:17:18;;;;;;;0.10;0.10;;;;;;;38.12;28.16;100168.47;4979141;28;20133;-76
2022/07/03 11:19:43;;;;;;;0.10;0.10;;;;;;;38.76;27.63;100171.19;4995020;28;20057;-76
2022/07/03 11:22:18;;;;;;;0.10;0.10;;;;;;;37.68;28.20;100164.22;4995651;28;20026;-76
2022/07/03 11:24:45;;;;;;;0.10;0.10;;;;;;;38.81;27.20;100160.03;4995214;28;20030;-76
2022/07/03 11:27:20;;;;;;;0.10;0.10;;;;;;;38.79;27.13;100148.97;4978821;28;20038;-76
2022/07/03 11:29:50;;;;;;;0.10;0.10;;;;;;;38.64;27.23;100140.00;4978936;28;20555;-77
2022/07/03 11:32:57;;;;;;;0.10;0.10;;;;;;;38.11;27.13;100137.09;4995416;28;20381;-76
2022/07/03 11:35:52;;;;;;;0.10;0.10;;;;;;;38.27;27.44;100139.66;4995531;28;20121;-75
2022/07/03 11:38:27;;;;;;;0.10;0.10;;;;;;;39.08;27.55;100140.38;4995849;28;20053;-77
2022/07/03 11:40:54;;;;;;;0.10;0.10;;;;;;;39.49;27.07;100145.50;4995048;28;20034;-76
2022/07/03 11:43:20;;;;;;;0.10;0.10;;;;;;;39.34;28.20;100137.41;4996279;28;20033;-77
2022/07/03 11:45:47;;;;;;;0.10;0.10;;;;;;;39.02;27.74;100138.38;4997932;28;20065;-77
2022/07/03 11:48:18;;;;;;;0.10;0.10;;;;;;;39.26;26.70;100127.81;4997664;28;20053;-78
2022/07/03 11:50:45;;;;;;;0.10;0.10;;;;;;;38.48;26.69;100122.34;4997206;28;20034;-76